createdAt,value
2023-01-20T00:01:53.726Z,100522.78
2023-01-20T00:04:19.163Z,100518.44
2023-01-20T00:06:42.795Z,100527.44
2023-01-20T00:09:07.106Z,100528.09
2023-01-20T00:11:31.430Z,100529.16
2023-01-20T00:13:56.518Z,100523.81
2023-01-20T00:16:20.075Z,100521.91
2023-01-20T00:18:45.037Z,100523.97
2023-01-20T00:21:10.754Z,100526.53
2023-01-20T00:23:34.596Z,100534.91
2023-01-20T00:25:58.133Z,100540.47
2023-01-20T00:28:21.736Z,100536.56
2023-01-20T00:30:45.268Z,100532.69
2023-01-20T00:33:09.085Z,100533.19
2023-01-20T00:35:33.982Z,100533.44
2023-01-20T00:37:57.544Z,100543.81
2023-01-20T00:40:21.185Z,100541.69
2023-01-20T00:42:44.786Z,100543.75
2023-01-20T00:45:09.694Z,100547.50
2023-01-20T00:47:33.314Z,100546.38
2023-01-20T00:49:57.338Z,100556.59
2023-01-20T00:52:22.550Z,100559.28
2023-01-20T00:54:46.168Z,100561.59
2023-01-20T00:57:09.763Z,100565.91
2023-01-20T00:59:33.866Z,100567.69
2023-01-20T01:01:57.760Z,100568.88
2023-01-20T01:04:21.368Z,100577.97
2023-01-20T01:06:44.963Z,100571.50
2023-01-20T01:09:09.902Z,100568.97
2023-01-20T01:11:33.531Z,100580.84
2023-01-20T01:13:58.206Z,100580.09
2023-01-20T01:16:21.796Z,100585.25
2023-01-20T01:18:45.469Z,100579.81
2023-01-20T01:21:10.578Z,100584.09
2023-01-20T01:23:34.078Z,100587.06
2023-01-20T01:25:59.385Z,100581.47
2023-01-20T01:28:22.928Z,100585.50
2023-01-20T01:30:46.494Z,100583.63
2023-01-20T01:33:09.994Z,100579.59
2023-01-20T01:35:33.649Z,100585.13
2023-01-20T01:37:57.169Z,100575.75
2023-01-20T01:40:20.938Z,100585.91
2023-01-20T01:42:45.839Z,100580.28
2023-01-20T01:45:29.046Z,100580.31
2023-01-20T01:48:00.333Z,100591.97
2023-01-20T01:50:27.780Z,100593.47
2023-01-20T01:52:54.928Z,100596.06
2023-01-20T01:55:22.673Z,100593.59
2023-01-20T01:57:48.562Z,100598.53
2023-01-20T02:00:13.542Z,100606.38
2023-01-20T02:02:37.244Z,100605.13
2023-01-20T02:05:00.887Z,100606.84
2023-01-20T02:07:24.456Z,100607.66
2023-01-20T02:09:48.249Z,100609.88
2023-01-20T02:12:16.131Z,100615.63
2023-01-20T02:14:46.890Z,100620.06
2023-01-20T02:17:24.749Z,100624.44
2023-01-20T02:20:38.533Z,100638.25
2023-01-20T02:23:10.319Z,100637.56
2023-01-20T02:26:22.311Z,100643.47
2023-01-20T02:29:09.264Z,100641.91
2023-01-20T02:32:05.437Z,100641.00
2023-01-20T02:34:34.400Z,100645.03
2023-01-20T02:37:03.871Z,100645.38
2023-01-20T02:39:32.912Z,100652.84
2023-01-20T02:42:05.056Z,100657.59
2023-01-20T02:44:37.248Z,100658.28
2023-01-20T02:47:09.209Z,100667.63
2023-01-20T02:49:38.030Z,100659.56
2023-01-20T02:52:08.443Z,100671.88
2023-01-20T02:54:36.092Z,100679.75
2023-01-20T02:57:03.817Z,100692.06
2023-01-20T02:59:32.512Z,100684.50
2023-01-20T03:02:02.691Z,100688.81
2023-01-20T03:04:31.089Z,100697.63
2023-01-20T03:06:57.962Z,100689.84
2023-01-20T03:09:28.585Z,100692.06
2023-01-20T03:11:57.102Z,100695.53
2023-01-20T03:14:20.991Z,100703.16
2023-01-20T03:16:48.214Z,100693.09
2023-01-20T03:19:13.283Z,100704.06
2023-01-20T03:21:37.353Z,100703.75
2023-01-20T03:24:03.381Z,100712.13
2023-01-20T03:26:26.958Z,100720.22
2023-01-20T03:28:50.934Z,100718.97
2023-01-20T03:31:20.158Z,100717.50
2023-01-20T03:33:45.142Z,100721.06
2023-01-20T03:36:11.520Z,100721.88
2023-01-20T03:38:35.197Z,100724.75
2023-01-20T03:41:05.773Z,100727.50
2023-01-20T03:43:40.285Z,100731.72
2023-01-20T03:46:11.587Z,100731.81
2023-01-20T03:48:43.601Z,100729.97
2023-01-20T03:51:16.748Z,100728.34
2023-01-20T03:53:47.635Z,100728.59
2023-01-20T03:56:19.443Z,100732.47
2023-01-20T03:58:47.200Z,100726.41
2023-01-20T04:01:18.369Z,100729.19
2023-01-20T04:03:47.493Z,100738.03
2023-01-20T04:06:14.918Z,100734.88
2023-01-20T04:08:45.630Z,100746.13
2023-01-20T04:11:10.272Z,100748.38
2023-01-20T04:13:34.018Z,100758.59
2023-01-20T04:15:59.309Z,100754.09
2023-01-20T04:18:25.224Z,100753.88
2023-01-20T04:20:51.980Z,100764.56
2023-01-20T04:23:22.413Z,100765.50
2023-01-20T04:25:46.828Z,100768.00
2023-01-20T04:28:10.386Z,100768.72
2023-01-20T04:30:33.989Z,100772.59
2023-01-20T04:32:57.573Z,100769.63
2023-01-20T04:35:22.104Z,100775.53
2023-01-20T04:37:45.635Z,100776.66
2023-01-20T04:40:12.986Z,100785.19
2023-01-20T04:42:36.803Z,100790.06
2023-01-20T04:45:00.642Z,100791.50
2023-01-20T04:47:24.260Z,100792.28
2023-01-20T04:49:47.791Z,100792.50
2023-01-20T04:52:11.329Z,100791.56
2023-01-20T04:54:35.039Z,100793.38
2023-01-20T04:56:59.980Z,100793.69
2023-01-20T04:59:23.746Z,100803.16
2023-01-20T05:01:47.365Z,100801.16
2023-01-20T05:04:11.005Z,100802.88
2023-01-20T05:06:35.368Z,100803.09
2023-01-20T05:08:58.941Z,100802.94
2023-01-20T05:11:22.525Z,100818.38
2023-01-20T05:13:47.447Z,100814.19
2023-01-20T05:16:12.745Z,100820.22
2023-01-20T05:18:36.803Z,100824.50
2023-01-20T05:21:00.378Z,100824.63
2023-01-20T05:23:23.943Z,100820.88
2023-01-20T05:25:51.985Z,100823.06
2023-01-20T05:28:15.510Z,100825.84
2023-01-20T05:30:40.522Z,100834.47
2023-01-20T05:33:04.129Z,100840.81
2023-01-20T05:35:27.837Z,100847.03
2023-01-20T05:37:55.465Z,100842.47
2023-01-20T05:40:19.429Z,100851.16
2023-01-20T05:42:42.972Z,100856.50
2023-01-20T05:45:09.330Z,100859.03
2023-01-20T05:47:34.277Z,100864.59
2023-01-20T05:49:57.822Z,100873.59
2023-01-20T05:52:21.464Z,100870.63
2023-01-20T05:54:45.487Z,100876.50
2023-01-20T05:57:09.100Z,100875.66
2023-01-20T05:59:32.708Z,100877.28
2023-01-20T06:01:58.621Z,100886.19
2023-01-20T06:04:23.801Z,100882.78
2023-01-20T06:06:47.405Z,100887.63
2023-01-20T06:09:11.078Z,100902.59
2023-01-20T06:11:34.941Z,100901.03
2023-01-20T06:13:58.475Z,100908.72
2023-01-20T06:16:22.383Z,100909.28
2023-01-20T06:18:45.963Z,100913.09
2023-01-20T06:21:11.257Z,100913.03
2023-01-20T06:23:35.017Z,100915.31
2023-01-20T06:26:03.417Z,100923.03
2023-01-20T06:28:27.014Z,100932.97
2023-01-20T06:30:50.621Z,100927.81
2023-01-20T06:33:14.194Z,100928.97
2023-01-20T06:35:38.486Z,100931.34
2023-01-20T06:38:03.687Z,100934.84
2023-01-20T06:40:27.269Z,100941.97
2023-01-20T06:42:50.887Z,100947.69
2023-01-20T06:45:16.957Z,100953.91
2023-01-20T06:47:40.618Z,100958.00
2023-01-20T06:50:04.344Z,100967.09
2023-01-20T06:52:27.910Z,100977.13
2023-01-20T06:54:52.804Z,100972.53
2023-01-20T06:57:16.321Z,100982.84
2023-01-20T06:59:39.865Z,100990.84
2023-01-20T07:02:03.517Z,100989.31
2023-01-20T07:04:27.184Z,100989.75
2023-01-20T07:06:50.755Z,100991.09
2023-01-20T07:09:15.116Z,100998.63
2023-01-20T07:11:40.460Z,101005.22
2023-01-20T07:14:04.818Z,101001.19
2023-01-20T07:16:28.406Z,101006.59
2023-01-20T07:18:53.838Z,101017.31
2023-01-20T07:21:18.024Z,101015.22
2023-01-20T07:23:41.686Z,101022.91
2023-01-20T07:26:07.979Z,101025.84
2023-01-20T07:28:34.524Z,101027.91
2023-01-20T07:31:00.942Z,101032.34
2023-01-20T07:33:24.576Z,101033.66
2023-01-20T07:35:54.442Z,101043.19
2023-01-20T07:38:18.103Z,101042.50
2023-01-20T07:40:41.694Z,101050.56
2023-01-20T07:43:05.672Z,101058.13
2023-01-20T07:45:30.712Z,101058.81
2023-01-20T07:47:57.295Z,101058.91
2023-01-20T07:50:20.811Z,101067.38
2023-01-20T07:52:44.367Z,101070.47
2023-01-20T07:55:08.804Z,101073.28
2023-01-20T07:57:32.383Z,101074.28
2023-01-20T07:59:55.959Z,101071.69
2023-01-20T08:02:20.942Z,101077.41
2023-01-20T08:04:44.685Z,101079.84
2023-01-20T08:07:08.214Z,101083.94
2023-01-20T08:09:31.757Z,101083.53
2023-01-20T08:11:55.381Z,101087.09
2023-01-20T08:14:18.955Z,101087.75
2023-01-20T08:16:42.578Z,101093.03
2023-01-20T08:19:07.507Z,101088.59
2023-01-20T08:21:33.006Z,101092.22
2023-01-20T08:23:57.346Z,101099.00
2023-01-20T08:26:21.239Z,101099.69
2023-01-20T08:28:45.083Z,101107.28
2023-01-20T08:31:11.424Z,101105.84
2023-01-20T08:33:35.217Z,101103.69
2023-01-20T08:36:07.064Z,101103.72
2023-01-20T08:38:30.698Z,101103.72
2023-01-20T08:40:54.227Z,101105.78
2023-01-20T08:43:18.002Z,101113.69
2023-01-20T08:45:43.693Z,101120.50
2023-01-20T08:48:08.806Z,101118.94
2023-01-20T08:50:32.348Z,101129.28
2023-01-20T08:52:57.298Z,101126.63
2023-01-20T08:55:20.876Z,101123.84
2023-01-20T08:57:45.655Z,101127.78
2023-01-20T09:00:11.584Z,101123.19
2023-01-20T09:02:35.276Z,101125.31
2023-01-20T09:04:58.839Z,101131.69
2023-01-20T09:07:22.636Z,101132.22
2023-01-20T09:09:47.849Z,101137.06
2023-01-20T09:12:11.543Z,101142.22
2023-01-20T09:14:35.075Z,101152.97
2023-01-20T09:16:58.931Z,101145.84
2023-01-20T09:19:22.557Z,101157.00
2023-01-20T09:21:46.189Z,101163.69
2023-01-20T09:24:10.391Z,101164.53
2023-01-20T09:26:39.463Z,101169.78
2023-01-20T09:29:09.408Z,101175.97
2023-01-20T09:31:33.595Z,101178.63
2023-01-20T09:33:57.175Z,101181.88
2023-01-20T09:36:20.743Z,101182.56
2023-01-20T09:39:01.663Z,101184.72
2023-01-20T09:41:57.581Z,101183.69
2023-01-20T09:44:49.564Z,101185.03
2023-01-20T09:47:31.193Z,101195.31
2023-01-20T09:50:51.092Z,101190.22
2023-01-20T09:53:44.859Z,101204.75
2023-01-20T09:56:16.520Z,101199.63
2023-01-20T09:58:47.709Z,101210.69
2023-01-20T10:01:19.860Z,101210.31
2023-01-20T10:03:50.055Z,101211.00
2023-01-20T10:06:20.935Z,101212.63
2023-01-20T10:09:04.455Z,101215.28
2023-01-20T10:11:32.959Z,101219.25
2023-01-20T10:14:06.720Z,101215.06
2023-01-20T10:16:39.015Z,101226.31
2023-01-20T10:19:06.430Z,101222.41
2023-01-20T10:21:35.692Z,101224.47
2023-01-20T10:24:03.843Z,101223.66
2023-01-20T10:26:33.540Z,101225.13
2023-01-20T10:29:02.180Z,101224.38
2023-01-20T10:31:29.708Z,101228.34
2023-01-20T10:33:59.712Z,101223.38
2023-01-20T10:36:28.866Z,101225.84
2023-01-20T10:38:58.147Z,101228.75
2023-01-20T10:41:33.248Z,101230.31
2023-01-20T10:43:58.252Z,101228.22
2023-01-20T10:46:50.215Z,101226.41
2023-01-20T10:49:59.139Z,101233.00
2023-01-20T10:52:46.515Z,101241.72
2023-01-20T10:55:26.015Z,101234.88
2023-01-20T10:57:53.888Z,101238.47
2023-01-20T11:00:23.701Z,101238.91
2023-01-20T11:02:49.553Z,101232.53
2023-01-20T11:05:20.627Z,101238.06
2023-01-20T11:07:46.190Z,101237.94
2023-01-20T11:10:17.056Z,101243.50
2023-01-20T11:12:43.889Z,101241.41
2023-01-20T11:15:21.378Z,101241.97
2023-01-20T11:17:44.977Z,101249.50
2023-01-20T11:20:20.427Z,101249.94
2023-01-20T11:22:49.482Z,101259.22
2023-01-20T11:25:26.947Z,101255.66
2023-01-20T11:27:50.610Z,101251.03
2023-01-20T11:30:28.173Z,101255.88
2023-01-20T11:33:17.508Z,101258.94
2023-01-20T11:35:58.757Z,101259.72
2023-01-20T11:38:25.957Z,101252.34
2023-01-20T11:40:55.122Z,101248.59
2023-01-20T11:43:35.737Z,101254.41
2023-01-20T11:46:20.068Z,101263.03
2023-01-20T11:48:45.208Z,101264.50
2023-01-20T11:51:23.042Z,101263.41
2023-01-20T11:53:47.509Z,101263.34
2023-01-20T11:56:20.668Z,101269.63
2023-01-20T11:58:55.527Z,101260.38
2023-01-20T12:01:25.612Z,101264.34
2023-01-20T12:04:19.790Z,101264.16
2023-01-20T12:06:54.972Z,101268.19
2023-01-20T12:09:22.211Z,101270.09
2023-01-20T12:11:56.159Z,101266.53
2023-01-20T12:14:29.227Z,101271.63
2023-01-20T12:17:06.008Z,101265.13
2023-01-20T12:19:40.530Z,101276.22
2023-01-20T12:22:14.052Z,101270.25
2023-01-20T12:25:08.951Z,101271.38
2023-01-20T12:27:33.334Z,101279.00
2023-01-20T12:30:01.289Z,101281.59
2023-01-20T12:32:24.967Z,101286.84
2023-01-20T12:34:48.508Z,101286.75
2023-01-20T12:37:22.866Z,101289.78
2023-01-20T12:40:12.052Z,101301.28
2023-01-20T12:43:23.577Z,101307.44
2023-01-20T12:46:27.251Z,101308.44
2023-01-20T12:49:11.849Z,101311.03
2023-01-20T12:51:50.015Z,101307.19
2023-01-20T12:54:58.821Z,101312.63
2023-01-20T12:57:43.314Z,101317.56
2023-01-20T13:00:45.619Z,101316.28
2023-01-20T13:03:44.339Z,101330.50
2023-01-20T13:07:00.808Z,101334.41
2023-01-20T13:09:40.573Z,101333.75
2023-01-20T13:12:18.677Z,101340.84
2023-01-20T13:14:46.325Z,101344.50
2023-01-20T13:17:20.713Z,101346.84
2023-01-20T13:19:48.307Z,101351.22
2023-01-20T13:22:17.071Z,101354.81
2023-01-20T13:24:46.427Z,101363.66
2023-01-20T13:27:11.489Z,101368.13
2023-01-20T13:29:55.365Z,101375.31
2023-01-20T13:32:42.035Z,101371.06
2023-01-20T13:35:49.876Z,101375.28
2023-01-20T13:38:25.712Z,101383.09
2023-01-20T13:40:58.717Z,101383.81
2023-01-20T13:43:57.996Z,101375.47
2023-01-20T13:46:48.338Z,101384.38
2023-01-20T13:49:30.805Z,101395.00
2023-01-20T13:51:54.692Z,101391.66
2023-01-20T13:54:39.064Z,101396.72
2023-01-20T13:57:46.772Z,101396.59
2023-01-20T14:00:19.658Z,101397.38
2023-01-20T14:02:43.511Z,101393.22
2023-01-20T14:05:25.457Z,101394.81
2023-01-20T14:07:49.016Z,101401.38
2023-01-20T14:10:14.500Z,101395.25
2023-01-20T14:12:42.122Z,101401.94
2023-01-20T14:15:09.292Z,101404.69
2023-01-20T14:17:33.360Z,101412.09
2023-01-20T14:19:57.851Z,101412.84
2023-01-20T14:22:25.824Z,101409.94
2023-01-20T14:24:50.187Z,101407.63
2023-01-20T14:27:20.056Z,101410.94
2023-01-20T14:29:43.612Z,101419.56
2023-01-20T14:32:22.043Z,101424.53
2023-01-20T14:34:46.509Z,101425.41
2023-01-20T14:37:26.292Z,101423.09
2023-01-20T14:39:51.244Z,101423.50
2023-01-20T14:42:21.139Z,101431.50
2023-01-20T14:44:49.369Z,101433.56
2023-01-20T14:47:14.645Z,101439.22
2023-01-20T14:49:39.697Z,101434.56
2023-01-20T14:52:03.716Z,101438.91
2023-01-20T14:54:40.734Z,101449.94
2023-01-20T14:57:25.360Z,101462.38
2023-01-20T14:59:49.969Z,101461.81
2023-01-20T15:02:29.279Z,101459.53
2023-01-20T15:04:53.036Z,101467.78
2023-01-20T15:07:21.445Z,101467.97
2023-01-20T15:09:54.463Z,101475.13
2023-01-20T15:12:53.765Z,101482.50
2023-01-20T15:15:26.251Z,101485.75
2023-01-20T15:18:20.024Z,101490.03
2023-01-20T15:20:47.086Z,101485.34
2023-01-20T15:23:22.711Z,101493.84
2023-01-20T15:25:46.358Z,101501.66
2023-01-20T15:28:29.623Z,101494.59
2023-01-20T15:30:54.406Z,101513.44
2023-01-20T15:33:21.570Z,101508.69
2023-01-20T15:35:45.238Z,101510.41
2023-01-20T15:38:13.054Z,101517.88
2023-01-20T15:40:39.733Z,101520.94
2023-01-20T15:43:03.273Z,101527.00
2023-01-20T15:45:26.921Z,101534.75
2023-01-20T15:47:50.548Z,101535.31
2023-01-20T15:50:19.302Z,101537.84
2023-01-20T15:52:42.957Z,101545.97
2023-01-20T15:55:07.679Z,101556.09
2023-01-20T15:57:31.253Z,101554.34
2023-01-20T15:59:54.862Z,101561.84
2023-01-20T16:02:20.634Z,101570.22
2023-01-20T16:04:44.203Z,101568.66
2023-01-20T16:07:13.834Z,101567.69
2023-01-20T16:09:38.643Z,101578.88
2023-01-20T16:12:02.176Z,101584.31
2023-01-20T16:14:25.850Z,101581.38
2023-01-20T16:16:49.489Z,101584.22
2023-01-20T16:19:14.962Z,101595.91
2023-01-20T16:21:38.457Z,101599.78
2023-01-20T16:24:03.446Z,101599.59
2023-01-20T16:26:29.664Z,101610.22
2023-01-20T16:28:55.224Z,101609.31
2023-01-20T16:31:19.437Z,101617.59
2023-01-20T16:33:43.347Z,101616.81
2023-01-20T16:36:12.274Z,101620.63
2023-01-20T16:38:35.903Z,101624.66
2023-01-20T16:41:07.835Z,101626.06
2023-01-20T16:43:31.699Z,101627.72
2023-01-20T16:45:56.113Z,101638.59
2023-01-20T16:48:20.052Z,101634.78
2023-01-20T16:50:43.593Z,101632.84
2023-01-20T16:53:07.202Z,101632.16
2023-01-20T16:55:30.737Z,101635.47
2023-01-20T16:57:55.841Z,101644.50
2023-01-20T17:00:21.228Z,101648.22
2023-01-20T17:02:45.568Z,101652.91
2023-01-20T17:05:10.085Z,101655.53
2023-01-20T17:07:34.209Z,101661.47
2023-01-20T17:09:57.716Z,101662.78
2023-01-20T17:12:21.329Z,101668.81
2023-01-20T17:14:46.340Z,101672.78
2023-01-20T17:17:10.038Z,101662.56
2023-01-20T17:19:33.574Z,101668.66
2023-01-20T17:21:57.319Z,101674.03
2023-01-20T17:24:20.897Z,101676.34
2023-01-20T17:26:44.534Z,101684.13
2023-01-20T17:29:08.617Z,101682.81
2023-01-20T17:31:36.650Z,101684.94
2023-01-20T17:34:00.722Z,101692.78
2023-01-20T17:36:24.344Z,101699.41
2023-01-20T17:38:48.141Z,101700.25
2023-01-20T17:41:12.716Z,101698.44
2023-01-20T17:43:38.448Z,101710.56
2023-01-20T17:46:02.823Z,101709.03
2023-01-20T17:48:27.834Z,101716.00
2023-01-20T17:50:51.456Z,101721.19
2023-01-20T17:53:15.012Z,101729.97
2023-01-20T17:55:38.637Z,101728.41
2023-01-20T17:58:02.290Z,101736.50
2023-01-20T18:00:26.099Z,101734.94
2023-01-20T18:02:50.124Z,101727.88
2023-01-20T18:05:15.314Z,101735.63
2023-01-20T18:07:39.370Z,101734.38
2023-01-20T18:10:02.934Z,101731.38
2023-01-20T18:12:26.556Z,101739.69
2023-01-20T18:14:50.755Z,101734.72
2023-01-20T18:17:14.332Z,101737.69
2023-01-20T18:19:38.002Z,101737.63
2023-01-20T18:22:06.881Z,101742.94
2023-01-20T18:24:30.588Z,101742.38
2023-01-20T18:26:55.334Z,101748.75
2023-01-20T18:29:19.895Z,101753.13
2023-01-20T18:31:44.771Z,101760.72
2023-01-20T18:34:11.676Z,101757.88
2023-01-20T18:36:38.243Z,101769.16
2023-01-20T18:39:05.887Z,101769.78
2023-01-20T18:41:32.029Z,101767.75
2023-01-20T18:43:56.551Z,101774.16
2023-01-20T18:46:20.787Z,101777.41
2023-01-20T18:48:46.490Z,101779.84
2023-01-20T18:51:11.011Z,101780.69
2023-01-20T18:53:34.708Z,101784.69
2023-01-20T18:56:02.904Z,101786.09
2023-01-20T18:58:28.514Z,101789.88
2023-01-20T19:00:52.076Z,101785.31
2023-01-20T19:03:15.682Z,101790.31
2023-01-20T19:05:39.242Z,101793.72
2023-01-20T19:08:02.875Z,101787.91
2023-01-20T19:10:27.068Z,101807.00
2023-01-20T19:12:53.808Z,101803.09
2023-01-20T19:15:17.458Z,101810.84
2023-01-20T19:17:41.081Z,101807.94
2023-01-20T19:20:05.736Z,101817.28
2023-01-20T19:22:29.433Z,101812.78
2023-01-20T19:24:52.966Z,101822.56
2023-01-20T19:27:16.639Z,101822.03
2023-01-20T19:29:41.559Z,101817.53
2023-01-20T19:32:05.604Z,101829.50
2023-01-20T19:34:29.409Z,101831.00
2023-01-20T19:36:53.026Z,101835.41
2023-01-20T19:39:16.682Z,101834.78
2023-01-20T19:41:40.260Z,101843.69
2023-01-20T19:44:06.899Z,101844.69
2023-01-20T19:46:34.848Z,101845.69
2023-01-20T19:49:00.216Z,101854.00
2023-01-20T19:51:24.046Z,101855.63
2023-01-20T19:53:50.079Z,101855.72
2023-01-20T19:56:16.406Z,101862.38
2023-01-20T19:58:40.946Z,101862.94
2023-01-20T20:01:08.680Z,101863.84
2023-01-20T20:03:33.714Z,101872.19
2023-01-20T20:05:57.807Z,101866.75
2023-01-20T20:08:21.357Z,101870.03
2023-01-20T20:10:45.130Z,101872.69
2023-01-20T20:13:08.636Z,101873.91
2023-01-20T20:15:32.997Z,101870.94
2023-01-20T20:17:56.602Z,101881.97
2023-01-20T20:20:21.752Z,101884.25
2023-01-20T20:22:45.332Z,101890.31
2023-01-20T20:25:11.536Z,101887.72
2023-01-20T20:27:35.456Z,101890.38
2023-01-20T20:30:01.313Z,101893.13
2023-01-20T20:32:27.264Z,101900.88
2023-01-20T20:34:50.973Z,101904.06
2023-01-20T20:37:15.876Z,101898.81
2023-01-20T20:39:39.438Z,101896.53
2023-01-20T20:42:02.985Z,101905.53
2023-01-20T20:44:26.570Z,101907.38
2023-01-20T20:46:50.148Z,101910.09
2023-01-20T20:49:16.152Z,101923.38
2023-01-20T20:51:39.747Z,101920.13
2023-01-20T20:54:05.047Z,101925.63
2023-01-20T20:56:31.690Z,101927.75
2023-01-20T20:59:01.956Z,101924.28
2023-01-20T21:01:26.090Z,101933.63
2023-01-20T21:03:49.668Z,101932.91
2023-01-20T21:06:13.919Z,101936.91
2023-01-20T21:08:38.155Z,101935.31
2023-01-20T21:11:05.586Z,101943.16
2023-01-20T21:13:29.510Z,101948.69
2023-01-20T21:15:59.569Z,101951.53
2023-01-20T21:18:23.143Z,101955.41
2023-01-20T21:20:46.686Z,101950.75
2023-01-20T21:23:10.223Z,101951.16
2023-01-20T21:25:33.841Z,101960.09
2023-01-20T21:27:59.004Z,101954.84
2023-01-20T21:30:22.758Z,101953.47
2023-01-20T21:32:46.350Z,101957.25
2023-01-20T21:35:10.940Z,101952.69
2023-01-20T21:37:34.645Z,101958.78
2023-01-20T21:39:58.174Z,101971.53
2023-01-20T21:42:21.732Z,101969.06
2023-01-20T21:44:45.648Z,101973.50
2023-01-20T21:47:09.523Z,101976.22
2023-01-20T21:49:50.503Z,101983.63
2023-01-20T21:52:33.302Z,101972.31
2023-01-20T21:54:56.964Z,101982.75
2023-01-20T21:57:21.204Z,101990.75
2023-01-20T21:59:46.849Z,101990.25
2023-01-20T22:02:12.780Z,101997.66
2023-01-20T22:04:36.416Z,101999.25
2023-01-20T22:07:00.023Z,101999.44
2023-01-20T22:09:23.580Z,101996.38
2023-01-20T22:11:47.127Z,102005.72
2023-01-20T22:14:11.362Z,102008.88
2023-01-20T22:16:36.390Z,102013.53
2023-01-20T22:19:00.067Z,102007.78
2023-01-20T22:21:25.511Z,102009.31
2023-01-20T22:23:49.172Z,102009.94
2023-01-20T22:26:12.732Z,102010.13
2023-01-20T22:28:39.896Z,102006.94
2023-01-20T22:31:07.600Z,102006.75
2023-01-20T22:33:32.558Z,102014.84
2023-01-20T22:35:56.207Z,102016.16
2023-01-20T22:38:19.947Z,102016.28
2023-01-20T22:40:43.503Z,102026.16
2023-01-20T22:43:07.084Z,102031.94
2023-01-20T22:45:30.653Z,102038.28
2023-01-20T22:47:56.354Z,102043.69
2023-01-20T22:50:21.290Z,102039.38
2023-01-20T22:52:45.409Z,102050.09
2023-01-20T22:55:10.070Z,102048.13
2023-01-20T22:57:33.701Z,102050.50
2023-01-20T22:59:57.239Z,102050.47
2023-01-20T23:02:20.935Z,102053.69
2023-01-20T23:04:44.471Z,102046.06
2023-01-20T23:07:09.466Z,102057.91
2023-01-20T23:09:32.984Z,102061.38
2023-01-20T23:11:56.567Z,102061.34
2023-01-20T23:14:40.083Z,102063.31
2023-01-20T23:17:03.684Z,102071.72
2023-01-20T23:19:27.203Z,102067.56
2023-01-20T23:21:50.853Z,102060.97
2023-01-20T23:24:15.818Z,102063.47
2023-01-20T23:26:39.436Z,102073.88
2023-01-20T23:29:03.052Z,102064.94
2023-01-20T23:31:28.663Z,102071.28
2023-01-20T23:33:53.989Z,102074.16
2023-01-20T23:36:20.966Z,102079.31
2023-01-20T23:38:45.276Z,102074.28
2023-01-20T23:41:10.530Z,102074.78
2023-01-20T23:43:34.502Z,102082.72
2023-01-20T23:45:59.610Z,102077.34
2023-01-20T23:48:23.138Z,102081.25
2023-01-20T23:50:46.875Z,102082.44
2023-01-20T23:53:10.417Z,102083.22
2023-01-20T23:55:33.998Z,102084.91
2023-01-20T23:57:58.916Z,102074.78
